sensor_id;sensor_type;location;lat;lon;timestamp;P1;durP1;ratioP1;P2;durP2;ratioP2
18048;SDS011;9149;47.002;8.604;2022-12-18T00:01:13;10.40;;;3.87;;
18048;SDS011;9149;47.002;8.604;2022-12-18T00:03:42;6.73;;;4.23;;
18048;SDS011;9149;47.002;8.604;2022-12-18T00:06:13;9.73;;;4.13;;
18048;SDS011;9149;47.002;8.604;2022-12-18T00:08:41;12.87;;;4.60;;
18048;SDS011;9149;47.002;8.604;2022-12-18T00:11:10;10.60;;;3.50;;
18048;SDS011;9149;47.002;8.604;2022-12-18T00:13:38;7.03;;;3.70;;
18048;SDS011;9149;47.002;8.604;2022-12-18T00:16:07;7.57;;;3.80;;
18048;SDS011;9149;47.002;8.604;2022-12-18T00:18:36;6.87;;;4.10;;
18048;SDS011;9149;47.002;8.604;2022-12-18T00:21:05;9.63;;;4.33;;
18048;SDS011;9149;47.002;8.604;2022-12-18T00:23:33;8.50;;;4.23;;
18048;SDS011;9149;47.002;8.604;2022-12-18T00:26:02;10.17;;;4.00;;
18048;SDS011;9149;47.002;8.604;2022-12-18T00:28:31;5.67;;;3.20;;
18048;SDS011;9149;47.002;8.604;2022-12-18T00:30:59;7.30;;;3.83;;
18048;SDS011;9149;47.002;8.604;2022-12-18T00:33:27;10.17;;;5.03;;
18048;SDS011;9149;47.002;8.604;2022-12-18T00:35:59;9.57;;;4.97;;
18048;SDS011;9149;47.002;8.604;2022-12-18T00:38:27;9.87;;;4.00;;
18048;SDS011;9149;47.002;8.604;2022-12-18T00:40:55;7.00;;;3.70;;
18048;SDS011;9149;47.002;8.604;2022-12-18T00:43:22;8.07;;;3.73;;
18048;SDS011;9149;47.002;8.604;2022-12-18T00:45:50;6.07;;;3.70;;
18048;SDS011;9149;47.002;8.604;2022-12-18T00:48:18;8.70;;;5.50;;
18048;SDS011;9149;47.002;8.604;2022-12-18T00:50:47;6.77;;;4.40;;
18048;SDS011;9149;47.002;8.604;2022-12-18T00:53:15;11.23;;;5.80;;
18048;SDS011;9149;47.002;8.604;2022-12-18T00:55:43;7.17;;;4.20;;
18048;SDS011;9149;47.002;8.604;2022-12-18T00:58:11;11.27;;;5.40;;
18048;SDS011;9149;47.002;8.604;2022-12-18T01:00:39;9.20;;;4.77;;
18048;SDS011;9149;47.002;8.604;2022-12-18T01:03:12;10.07;;;4.87;;
18048;SDS011;9149;47.002;8.604;2022-12-18T01:05:42;9.67;;;5.43;;
18048;SDS011;9149;47.002;8.604;2022-12-18T01:08:10;8.80;;;5.20;;
18048;SDS011;9149;47.002;8.604;2022-12-18T01:10:39;7.90;;;4.23;;
18048;SDS011;9149;47.002;8.604;2022-12-18T01:13:07;7.73;;;4.60;;
18048;SDS011;9149;47.002;8.604;2022-12-18T01:15:35;7.07;;;4.17;;
18048;SDS011;9149;47.002;8.604;2022-12-18T01:18:03;15.17;;;4.33;;
18048;SDS011;9149;47.002;8.604;2022-12-18T01:20:32;10.17;;;5.17;;
18048;SDS011;9149;47.002;8.604;2022-12-18T01:23:00;8.00;;;4.97;;
18048;SDS011;9149;47.002;8.604;2022-12-18T01:25:46;7.13;;;4.33;;
18048;SDS011;9149;47.002;8.604;2022-12-18T01:28:13;9.77;;;4.87;;
18048;SDS011;9149;47.002;8.604;2022-12-18T01:30:41;10.43;;;5.37;;
18048;SDS011;9149;47.002;8.604;2022-12-18T01:33:09;9.23;;;5.37;;
18048;SDS011;9149;47.002;8.604;2022-12-18T01:35:41;6.67;;;3.97;;
18048;SDS011;9149;47.002;8.604;2022-12-18T01:38:09;8.70;;;4.67;;
18048;SDS011;9149;47.002;8.604;2022-12-18T01:40:37;8.60;;;4.43;;
18048;SDS011;9149;47.002;8.604;2022-12-18T01:43:04;8.63;;;3.67;;
18048;SDS011;9149;47.002;8.604;2022-12-18T01:45:32;5.00;;;3.43;;
18048;SDS011;9149;47.002;8.604;2022-12-18T01:48:00;7.40;;;3.70;;
18048;SDS011;9149;47.002;8.604;2022-12-18T01:50:31;8.73;;;5.27;;
18048;SDS011;9149;47.002;8.604;2022-12-18T01:53:02;10.23;;;4.67;;
18048;SDS011;9149;47.002;8.604;2022-12-18T01:55:32;10.43;;;3.87;;
18048;SDS011;9149;47.002;8.604;2022-12-18T01:58:02;7.37;;;4.17;;
18048;SDS011;9149;47.002;8.604;2022-12-18T02:00:31;4.70;;;3.43;;
18048;SDS011;9149;47.002;8.604;2022-12-18T02:02:58;9.30;;;4.40;;
18048;SDS011;9149;47.002;8.604;2022-12-18T02:05:29;6.10;;;3.87;;
18048;SDS011;9149;47.002;8.604;2022-12-18T02:08:07;7.23;;;3.47;;
18048;SDS011;9149;47.002;8.604;2022-12-18T02:10:38;6.27;;;3.73;;
18048;SDS011;9149;47.002;8.604;2022-12-18T02:13:10;11.20;;;4.23;;
18048;SDS011;9149;47.002;8.604;2022-12-18T02:15:41;7.87;;;4.17;;
18048;SDS011;9149;47.002;8.604;2022-12-18T02:18:10;7.00;;;4.00;;
18048;SDS011;9149;47.002;8.604;2022-12-18T02:20:39;6.67;;;3.97;;
18048;SDS011;9149;47.002;8.604;2022-12-18T02:23:16;8.37;;;3.40;;
18048;SDS011;9149;47.002;8.604;2022-12-18T02:26:01;4.37;;;3.07;;
18048;SDS011;9149;47.002;8.604;2022-12-18T02:28:30;6.93;;;3.30;;
18048;SDS011;9149;47.002;8.604;2022-12-18T02:33:50;6.70;;;4.30;;
18048;SDS011;9149;47.002;8.604;2022-12-18T02:36:20;16.70;;;5.57;;
18048;SDS011;9149;47.002;8.604;2022-12-18T02:38:49;6.50;;;3.93;;
18048;SDS011;9149;47.002;8.604;2022-12-18T02:41:19;6.87;;;3.93;;
18048;SDS011;9149;47.002;8.604;2022-12-18T02:43:48;7.47;;;3.00;;
18048;SDS011;9149;47.002;8.604;2022-12-18T02:46:25;10.40;;;4.37;;
18048;SDS011;9149;47.002;8.604;2022-12-18T02:48:55;5.10;;;3.27;;
18048;SDS011;9149;47.002;8.604;2022-12-18T02:51:27;11.00;;;4.60;;
18048;SDS011;9149;47.002;8.604;2022-12-18T02:53:58;4.83;;;3.43;;
18048;SDS011;9149;47.002;8.604;2022-12-18T02:56:30;7.03;;;3.90;;
18048;SDS011;9149;47.002;8.604;2022-12-18T02:59:04;7.20;;;3.77;;
18048;SDS011;9149;47.002;8.604;2022-12-18T03:01:43;6.80;;;3.87;;
18048;SDS011;9149;47.002;8.604;2022-12-18T03:04:13;6.87;;;4.07;;
18048;SDS011;9149;47.002;8.604;2022-12-18T03:06:43;6.33;;;3.47;;
18048;SDS011;9149;47.002;8.604;2022-12-18T03:09:14;5.30;;;3.37;;
18048;SDS011;9149;47.002;8.604;2022-12-18T03:11:49;4.70;;;3.17;;
18048;SDS011;9149;47.002;8.604;2022-12-18T03:14:30;6.03;;;3.47;;
18048;SDS011;9149;47.002;8.604;2022-12-18T03:17:00;8.60;;;4.20;;
18048;SDS011;9149;47.002;8.604;2022-12-18T03:19:29;6.90;;;4.33;;
18048;SDS011;9149;47.002;8.604;2022-12-18T03:22:00;6.73;;;3.53;;
18048;SDS011;9149;47.002;8.604;2022-12-18T03:24:38;10.53;;;4.53;;
18048;SDS011;9149;47.002;8.604;2022-12-18T03:27:08;4.97;;;3.27;;
18048;SDS011;9149;47.002;8.604;2022-12-18T03:29:38;3.87;;;3.17;;
18048;SDS011;9149;47.002;8.604;2022-12-18T03:32:09;7.20;;;3.90;;
18048;SDS011;9149;47.002;8.604;2022-12-18T03:34:39;9.53;;;3.97;;
18048;SDS011;9149;47.002;8.604;2022-12-18T03:37:26;6.07;;;3.60;;
18048;SDS011;9149;47.002;8.604;2022-12-18T03:39:54;10.83;;;3.23;;
18048;SDS011;9149;47.002;8.604;2022-12-18T03:42:25;8.37;;;4.07;;
18048;SDS011;9149;47.002;8.604;2022-12-18T03:45:06;8.37;;;4.87;;
18048;SDS011;9149;47.002;8.604;2022-12-18T03:47:38;5.93;;;3.63;;
18048;SDS011;9149;47.002;8.604;2022-12-18T03:50:09;5.77;;;3.07;;
18048;SDS011;9149;47.002;8.604;2022-12-18T03:52:41;5.47;;;3.23;;
18048;SDS011;9149;47.002;8.604;2022-12-18T03:55:10;5.33;;;3.93;;
18048;SDS011;9149;47.002;8.604;2022-12-18T03:57:41;6.73;;;3.73;;
18048;SDS011;9149;47.002;8.604;2022-12-18T04:00:10;6.67;;;3.60;;
18048;SDS011;9149;47.002;8.604;2022-12-18T04:02:40;7.90;;;3.73;;
18048;SDS011;9149;47.002;8.604;2022-12-18T04:05:13;5.50;;;3.33;;
18048;SDS011;9149;47.002;8.604;2022-12-18T04:07:43;8.83;;;4.67;;
18048;SDS011;9149;47.002;8.604;2022-12-18T04:10:12;5.90;;;3.60;;
18048;SDS011;9149;47.002;8.604;2022-12-18T04:12:43;10.73;;;4.93;;
18048;SDS011;9149;47.002;8.604;2022-12-18T04:15:12;6.10;;;4.00;;
18048;SDS011;9149;47.002;8.604;2022-12-18T04:17:43;9.63;;;4.13;;
18048;SDS011;9149;47.002;8.604;2022-12-18T04:20:15;5.27;;;3.90;;
18048;SDS011;9149;47.002;8.604;2022-12-18T04:22:44;6.27;;;4.03;;
18048;SDS011;9149;47.002;8.604;2022-12-18T04:25:12;6.57;;;3.37;;
18048;SDS011;9149;47.002;8.604;2022-12-18T04:27:53;8.40;;;3.80;;
18048;SDS011;9149;47.002;8.604;2022-12-18T04:30:21;4.63;;;3.20;;
18048;SDS011;9149;47.002;8.604;2022-12-18T04:32:49;8.03;;;4.07;;
18048;SDS011;9149;47.002;8.604;2022-12-18T04:35:19;9.20;;;4.03;;
18048;SDS011;9149;47.002;8.604;2022-12-18T04:37:46;23.50;;;4.63;;
18048;SDS011;9149;47.002;8.604;2022-12-18T04:40:15;7.83;;;4.50;;
18048;SDS011;9149;47.002;8.604;2022-12-18T04:42:45;8.90;;;4.97;;
18048;SDS011;9149;47.002;8.604;2022-12-18T04:45:14;11.50;;;4.57;;
18048;SDS011;9149;47.002;8.604;2022-12-18T04:47:42;9.13;;;4.83;;
18048;SDS011;9149;47.002;8.604;2022-12-18T04:50:10;6.50;;;4.10;;
18048;SDS011;9149;47.002;8.604;2022-12-18T04:52:37;13.20;;;4.33;;
18048;SDS011;9149;47.002;8.604;2022-12-18T04:55:05;12.83;;;5.27;;
18048;SDS011;9149;47.002;8.604;2022-12-18T04:57:33;10.20;;;4.43;;
18048;SDS011;9149;47.002;8.604;2022-12-18T05:00:00;9.27;;;4.93;;
18048;SDS011;9149;47.002;8.604;2022-12-18T05:02:29;7.03;;;4.57;;
18048;SDS011;9149;47.002;8.604;2022-12-18T05:04:57;9.00;;;4.37;;
18048;SDS011;9149;47.002;8.604;2022-12-18T05:07:25;5.53;;;3.93;;
18048;SDS011;9149;47.002;8.604;2022-12-18T05:09:52;8.97;;;4.87;;
18048;SDS011;9149;47.002;8.604;2022-12-18T05:12:20;9.00;;;4.80;;
18048;SDS011;9149;47.002;8.604;2022-12-18T05:14:49;10.53;;;4.53;;
18048;SDS011;9149;47.002;8.604;2022-12-18T05:17:16;9.17;;;5.07;;
18048;SDS011;9149;47.002;8.604;2022-12-18T05:19:45;10.57;;;5.10;;
18048;SDS011;9149;47.002;8.604;2022-12-18T05:22:13;8.33;;;4.77;;
18048;SDS011;9149;47.002;8.604;2022-12-18T05:24:41;8.20;;;4.30;;
18048;SDS011;9149;47.002;8.604;2022-12-18T05:27:09;8.30;;;4.57;;
18048;SDS011;9149;47.002;8.604;2022-12-18T05:29:36;7.13;;;4.17;;
18048;SDS011;9149;47.002;8.604;2022-12-18T05:32:04;5.70;;;3.83;;
18048;SDS011;9149;47.002;8.604;2022-12-18T05:34:32;5.37;;;4.00;;
18048;SDS011;9149;47.002;8.604;2022-12-18T05:37:01;9.47;;;4.13;;
18048;SDS011;9149;47.002;8.604;2022-12-18T05:39:28;4.97;;;3.00;;
18048;SDS011;9149;47.002;8.604;2022-12-18T05:41:57;9.50;;;3.50;;
18048;SDS011;9149;47.002;8.604;2022-12-18T05:44:24;7.43;;;3.97;;
18048;SDS011;9149;47.002;8.604;2022-12-18T05:46:52;3.77;;;2.50;;
18048;SDS011;9149;47.002;8.604;2022-12-18T05:49:20;6.50;;;3.63;;
18048;SDS011;9149;47.002;8.604;2022-12-18T05:51:47;5.43;;;3.10;;
18048;SDS011;9149;47.002;8.604;2022-12-18T05:54:16;12.57;;;4.03;;
18048;SDS011;9149;47.002;8.604;2022-12-18T05:56:44;6.00;;;4.07;;
18048;SDS011;9149;47.002;8.604;2022-12-18T05:59:14;4.07;;;3.10;;
18048;SDS011;9149;47.002;8.604;2022-12-18T06:01:42;8.53;;;3.67;;
18048;SDS011;9149;47.002;8.604;2022-12-18T06:04:11;7.70;;;3.13;;
18048;SDS011;9149;47.002;8.604;2022-12-18T06:06:39;6.27;;;3.73;;
18048;SDS011;9149;47.002;8.604;2022-12-18T06:09:06;4.60;;;3.20;;
18048;SDS011;9149;47.002;8.604;2022-12-18T06:11:56;3.33;;;2.83;;
18048;SDS011;9149;47.002;8.604;2022-12-18T06:14:23;6.57;;;3.37;;
18048;SDS011;9149;47.002;8.604;2022-12-18T06:16:51;4.83;;;2.80;;
18048;SDS011;9149;47.002;8.604;2022-12-18T06:19:18;6.77;;;3.33;;
18048;SDS011;9149;47.002;8.604;2022-12-18T06:21:46;3.70;;;2.77;;
18048;SDS011;9149;47.002;8.604;2022-12-18T06:24:15;5.83;;;3.20;;
18048;SDS011;9149;47.002;8.604;2022-12-18T06:26:43;5.67;;;3.73;;
18048;SDS011;9149;47.002;8.604;2022-12-18T06:29:12;10.80;;;3.97;;
18048;SDS011;9149;47.002;8.604;2022-12-18T06:31:39;3.17;;;2.87;;
18048;SDS011;9149;47.002;8.604;2022-12-18T06:34:07;4.70;;;3.77;;
18048;SDS011;9149;47.002;8.604;2022-12-18T06:36:35;6.27;;;3.67;;
18048;SDS011;9149;47.002;8.604;2022-12-18T06:39:03;5.37;;;3.27;;
18048;SDS011;9149;47.002;8.604;2022-12-18T06:41:31;6.80;;;3.93;;
18048;SDS011;9149;47.002;8.604;2022-12-18T06:43:59;3.30;;;3.00;;
18048;SDS011;9149;47.002;8.604;2022-12-18T06:46:28;5.27;;;3.37;;
18048;SDS011;9149;47.002;8.604;2022-12-18T06:48:55;7.53;;;4.27;;
18048;SDS011;9149;47.002;8.604;2022-12-18T06:51:23;7.60;;;3.37;;
18048;SDS011;9149;47.002;8.604;2022-12-18T06:53:51;12.47;;;3.30;;
18048;SDS011;9149;47.002;8.604;2022-12-18T06:56:19;6.10;;;2.70;;
18048;SDS011;9149;47.002;8.604;2022-12-18T06:58:46;6.67;;;3.57;;
18048;SDS011;9149;47.002;8.604;2022-12-18T07:01:14;10.27;;;3.47;;
18048;SDS011;9149;47.002;8.604;2022-12-18T07:03:43;9.47;;;3.43;;
18048;SDS011;9149;47.002;8.604;2022-12-18T07:06:12;8.03;;;3.30;;
18048;SDS011;9149;47.002;8.604;2022-12-18T07:08:40;3.27;;;2.80;;
18048;SDS011;9149;47.002;8.604;2022-12-18T07:11:08;6.77;;;2.80;;
18048;SDS011;9149;47.002;8.604;2022-12-18T07:13:36;5.83;;;3.47;;
18048;SDS011;9149;47.002;8.604;2022-12-18T07:16:05;5.77;;;2.87;;
18048;SDS011;9149;47.002;8.604;2022-12-18T07:18:44;7.23;;;3.90;;
18048;SDS011;9149;47.002;8.604;2022-12-18T07:21:12;3.30;;;2.60;;
18048;SDS011;9149;47.002;8.604;2022-12-18T07:23:40;5.83;;;3.07;;
18048;SDS011;9149;47.002;8.604;2022-12-18T07:26:09;5.73;;;3.40;;
18048;SDS011;9149;47.002;8.604;2022-12-18T07:28:38;6.40;;;3.60;;
18048;SDS011;9149;47.002;8.604;2022-12-18T07:31:07;6.17;;;3.80;;
18048;SDS011;9149;47.002;8.604;2022-12-18T07:33:35;4.23;;;2.47;;
18048;SDS011;9149;47.002;8.604;2022-12-18T07:36:05;5.43;;;2.57;;
18048;SDS011;9149;47.002;8.604;2022-12-18T07:38:34;6.43;;;3.53;;
18048;SDS011;9149;47.002;8.604;2022-12-18T07:41:02;7.40;;;3.47;;
18048;SDS011;9149;47.002;8.604;2022-12-18T07:43:32;7.37;;;4.20;;
18048;SDS011;9149;47.002;8.604;2022-12-18T07:46:00;8.07;;;3.97;;
18048;SDS011;9149;47.002;8.604;2022-12-18T07:48:27;11.30;;;4.60;;
18048;SDS011;9149;47.002;8.604;2022-12-18T07:50:57;8.43;;;4.17;;
18048;SDS011;9149;47.002;8.604;2022-12-18T07:53:26;4.70;;;3.40;;
18048;SDS011;9149;47.002;8.604;2022-12-18T07:55:55;8.17;;;4.13;;
18048;SDS011;9149;47.002;8.604;2022-12-18T07:58:42;6.70;;;4.03;;
18048;SDS011;9149;47.002;8.604;2022-12-18T08:01:11;6.93;;;4.40;;
18048;SDS011;9149;47.002;8.604;2022-12-18T08:03:39;7.07;;;4.00;;
18048;SDS011;9149;47.002;8.604;2022-12-18T08:06:08;5.07;;;3.90;;
18048;SDS011;9149;47.002;8.604;2022-12-18T08:08:37;6.20;;;3.80;;
18048;SDS011;9149;47.002;8.604;2022-12-18T08:11:06;10.77;;;4.57;;
18048;SDS011;9149;47.002;8.604;2022-12-18T08:13:34;4.50;;;3.47;;
18048;SDS011;9149;47.002;8.604;2022-12-18T08:16:03;5.93;;;3.70;;
18048;SDS011;9149;47.002;8.604;2022-12-18T08:18:32;8.47;;;4.73;;
18048;SDS011;9149;47.002;8.604;2022-12-18T08:21:07;13.70;;;4.03;;
18048;SDS011;9149;47.002;8.604;2022-12-18T08:23:34;7.50;;;4.33;;
18048;SDS011;9149;47.002;8.604;2022-12-18T08:26:10;6.97;;;4.33;;
18048;SDS011;9149;47.002;8.604;2022-12-18T08:28:37;10.07;;;4.53;;
18048;SDS011;9149;47.002;8.604;2022-12-18T08:31:05;6.23;;;3.70;;
18048;SDS011;9149;47.002;8.604;2022-12-18T08:33:33;6.37;;;3.53;;
18048;SDS011;9149;47.002;8.604;2022-12-18T08:36:01;8.87;;;3.50;;
18048;SDS011;9149;47.002;8.604;2022-12-18T08:38:29;4.73;;;2.87;;
18048;SDS011;9149;47.002;8.604;2022-12-18T08:40:58;4.23;;;2.97;;
18048;SDS011;9149;47.002;8.604;2022-12-18T08:43:27;6.37;;;3.30;;
18048;SDS011;9149;47.002;8.604;2022-12-18T08:46:04;5.80;;;2.93;;
18048;SDS011;9149;47.002;8.604;2022-12-18T08:48:32;8.40;;;4.17;;
18048;SDS011;9149;47.002;8.604;2022-12-18T08:51:00;11.27;;;2.87;;
18048;SDS011;9149;47.002;8.604;2022-12-18T08:53:28;11.23;;;4.00;;
18048;SDS011;9149;47.002;8.604;2022-12-18T08:56:01;11.27;;;4.07;;
18048;SDS011;9149;47.002;8.604;2022-12-18T08:58:30;12.83;;;4.57;;
18048;SDS011;9149;47.002;8.604;2022-12-18T09:00:59;7.23;;;3.77;;
18048;SDS011;9149;47.002;8.604;2022-12-18T09:03:27;8.80;;;4.57;;
18048;SDS011;9149;47.002;8.604;2022-12-18T09:05:54;6.00;;;3.40;;
18048;SDS011;9149;47.002;8.604;2022-12-18T09:08:22;9.37;;;4.50;;
18048;SDS011;9149;47.002;8.604;2022-12-18T09:10:50;6.23;;;4.10;;
18048;SDS011;9149;47.002;8.604;2022-12-18T09:13:18;9.80;;;4.03;;
18048;SDS011;9149;47.002;8.604;2022-12-18T09:15:47;7.20;;;3.40;;
18048;SDS011;9149;47.002;8.604;2022-12-18T09:18:16;5.40;;;3.47;;
18048;SDS011;9149;47.002;8.604;2022-12-18T09:20:44;7.23;;;4.10;;
18048;SDS011;9149;47.002;8.604;2022-12-18T09:23:12;6.50;;;4.07;;
18048;SDS011;9149;47.002;8.604;2022-12-18T09:25:41;8.23;;;3.83;;
18048;SDS011;9149;47.002;8.604;2022-12-18T09:28:10;8.40;;;4.00;;
18048;SDS011;9149;47.002;8.604;2022-12-18T09:30:38;7.23;;;4.30;;
18048;SDS011;9149;47.002;8.604;2022-12-18T09:33:07;9.80;;;4.90;;
18048;SDS011;9149;47.002;8.604;2022-12-18T09:35:35;9.27;;;4.33;;
18048;SDS011;9149;47.002;8.604;2022-12-18T09:38:03;10.00;;;4.03;;
18048;SDS011;9149;47.002;8.604;2022-12-18T09:40:32;8.90;;;3.57;;
18048;SDS011;9149;47.002;8.604;2022-12-18T09:43:03;6.13;;;3.80;;
18048;SDS011;9149;47.002;8.604;2022-12-18T09:45:35;6.13;;;3.67;;
18048;SDS011;9149;47.002;8.604;2022-12-18T09:48:08;4.97;;;3.40;;
18048;SDS011;9149;47.002;8.604;2022-12-18T09:50:38;4.50;;;3.10;;
18048;SDS011;9149;47.002;8.604;2022-12-18T09:53:09;4.77;;;3.23;;
18048;SDS011;9149;47.002;8.604;2022-12-18T09:55:41;5.87;;;4.00;;
18048;SDS011;9149;47.002;8.604;2022-12-18T09:58:12;7.23;;;3.53;;
18048;SDS011;9149;47.002;8.604;2022-12-18T10:00:42;7.13;;;2.90;;
18048;SDS011;9149;47.002;8.604;2022-12-18T10:03:13;6.67;;;3.40;;
18048;SDS011;9149;47.002;8.604;2022-12-18T10:05:43;5.80;;;3.53;;
18048;SDS011;9149;47.002;8.604;2022-12-18T10:08:13;7.27;;;3.43;;
18048;SDS011;9149;47.002;8.604;2022-12-18T10:10:46;8.77;;;4.10;;
18048;SDS011;9149;47.002;8.604;2022-12-18T10:13:18;9.20;;;3.73;;
18048;SDS011;9149;47.002;8.604;2022-12-18T10:15:52;5.63;;;3.23;;
18048;SDS011;9149;47.002;8.604;2022-12-18T10:18:25;7.07;;;3.00;;
18048;SDS011;9149;47.002;8.604;2022-12-18T10:20:56;9.13;;;4.20;;
18048;SDS011;9149;47.002;8.604;2022-12-18T10:23:26;7.07;;;3.73;;
18048;SDS011;9149;47.002;8.604;2022-12-18T10:25:57;7.33;;;3.43;;
18048;SDS011;9149;47.002;8.604;2022-12-18T10:28:27;6.17;;;3.80;;
18048;SDS011;9149;47.002;8.604;2022-12-18T10:30:57;7.80;;;3.57;;
18048;SDS011;9149;47.002;8.604;2022-12-18T10:33:28;10.33;;;3.70;;
18048;SDS011;9149;47.002;8.604;2022-12-18T10:35:56;5.30;;;2.97;;
18048;SDS011;9149;47.002;8.604;2022-12-18T10:38:25;6.93;;;3.33;;
18048;SDS011;9149;47.002;8.604;2022-12-18T10:40:54;6.43;;;3.40;;
18048;SDS011;9149;47.002;8.604;2022-12-18T10:43:23;6.97;;;2.80;;
18048;SDS011;9149;47.002;8.604;2022-12-18T10:46:00;6.10;;;3.23;;
18048;SDS011;9149;47.002;8.604;2022-12-18T10:48:50;6.97;;;3.80;;
18048;SDS011;9149;47.002;8.604;2022-12-18T10:51:19;5.80;;;3.30;;
18048;SDS011;9149;47.002;8.604;2022-12-18T10:53:51;7.97;;;3.70;;
18048;SDS011;9149;47.002;8.604;2022-12-18T10:56:20;6.13;;;3.53;;
18048;SDS011;9149;47.002;8.604;2022-12-18T10:58:55;8.33;;;3.87;;
18048;SDS011;9149;47.002;8.604;2022-12-18T11:01:23;7.70;;;3.83;;
18048;SDS011;9149;47.002;8.604;2022-12-18T11:04:00;8.23;;;4.20;;
18048;SDS011;9149;47.002;8.604;2022-12-18T11:06:28;6.70;;;3.57;;
18048;SDS011;9149;47.002;8.604;2022-12-18T11:08:57;8.80;;;4.23;;
18048;SDS011;9149;47.002;8.604;2022-12-18T11:11:25;5.23;;;3.10;;
18048;SDS011;9149;47.002;8.604;2022-12-18T11:13:56;8.30;;;3.77;;
18048;SDS011;9149;47.002;8.604;2022-12-18T11:16:26;7.53;;;4.10;;
18048;SDS011;9149;47.002;8.604;2022-12-18T11:18:55;6.30;;;4.07;;
18048;SDS011;9149;47.002;8.604;2022-12-18T11:21:39;7.17;;;3.67;;
18048;SDS011;9149;47.002;8.604;2022-12-18T11:24:13;8.53;;;4.67;;
18048;SDS011;9149;47.002;8.604;2022-12-18T11:26:47;8.70;;;3.67;;
18048;SDS011;9149;47.002;8.604;2022-12-18T11:29:23;6.00;;;3.73;;
18048;SDS011;9149;47.002;8.604;2022-12-18T11:31:51;6.87;;;3.97;;
18048;SDS011;9149;47.002;8.604;2022-12-18T11:34:19;10.17;;;4.90;;
18048;SDS011;9149;47.002;8.604;2022-12-18T11:36:57;9.60;;;5.17;;
18048;SDS011;9149;47.002;8.604;2022-12-18T11:39:29;11.37;;;5.03;;
18048;SDS011;9149;47.002;8.604;2022-12-18T11:41:59;9.30;;;4.50;;
18048;SDS011;9149;47.002;8.604;2022-12-18T11:44:41;10.27;;;4.63;;
18048;SDS011;9149;47.002;8.604;2022-12-18T11:47:12;10.53;;;4.57;;
18048;SDS011;9149;47.002;8.604;2022-12-18T11:49:41;10.53;;;4.37;;
18048;SDS011;9149;47.002;8.604;2022-12-18T11:52:13;14.90;;;5.40;;
18048;SDS011;9149;47.002;8.604;2022-12-18T11:54:42;10.73;;;4.73;;
18048;SDS011;9149;47.002;8.604;2022-12-18T11:57:13;9.87;;;4.33;;
18048;SDS011;9149;47.002;8.604;2022-12-18T11:59:46;9.43;;;4.77;;
18048;SDS011;9149;47.002;8.604;2022-12-18T12:02:21;9.97;;;4.33;;
18048;SDS011;9149;47.002;8.604;2022-12-18T12:04:57;9.73;;;4.03;;
18048;SDS011;9149;47.002;8.604;2022-12-18T12:07:33;9.67;;;5.17;;
18048;SDS011;9149;47.002;8.604;2022-12-18T12:10:07;10.57;;;5.03;;
18048;SDS011;9149;47.002;8.604;2022-12-18T12:12:43;11.53;;;5.57;;
18048;SDS011;9149;47.002;8.604;2022-12-18T12:15:18;9.93;;;4.43;;
18048;SDS011;9149;47.002;8.604;2022-12-18T12:17:50;9.57;;;4.77;;
18048;SDS011;9149;47.002;8.604;2022-12-18T12:20:19;9.07;;;5.00;;
18048;SDS011;9149;47.002;8.604;2022-12-18T12:22:53;9.90;;;5.10;;
18048;SDS011;9149;47.002;8.604;2022-12-18T12:25:28;16.33;;;5.30;;
18048;SDS011;9149;47.002;8.604;2022-12-18T12:28:04;10.87;;;4.87;;
18048;SDS011;9149;47.002;8.604;2022-12-18T12:30:35;11.97;;;5.27;;
18048;SDS011;9149;47.002;8.604;2022-12-18T12:33:10;8.70;;;4.90;;
18048;SDS011;9149;47.002;8.604;2022-12-18T12:35:42;9.23;;;4.97;;
18048;SDS011;9149;47.002;8.604;2022-12-18T12:38:13;11.47;;;5.00;;
18048;SDS011;9149;47.002;8.604;2022-12-18T12:40:43;9.53;;;4.93;;
18048;SDS011;9149;47.002;8.604;2022-12-18T12:43:27;10.30;;;5.20;;
18048;SDS011;9149;47.002;8.604;2022-12-18T12:45:55;11.83;;;4.83;;
18048;SDS011;9149;47.002;8.604;2022-12-18T12:48:31;14.47;;;5.60;;
18048;SDS011;9149;47.002;8.604;2022-12-18T12:51:00;11.67;;;5.07;;
18048;SDS011;9149;47.002;8.604;2022-12-18T12:53:31;10.67;;;5.13;;
18048;SDS011;9149;47.002;8.604;2022-12-18T12:56:00;11.47;;;5.17;;
18048;SDS011;9149;47.002;8.604;2022-12-18T12:58:30;10.17;;;4.50;;
18048;SDS011;9149;47.002;8.604;2022-12-18T13:01:02;10.97;;;4.80;;
18048;SDS011;9149;47.002;8.604;2022-12-18T13:03:35;21.90;;;5.47;;
18048;SDS011;9149;47.002;8.604;2022-12-18T13:06:04;10.97;;;5.93;;
18048;SDS011;9149;47.002;8.604;2022-12-18T13:11:30;9.50;;;5.30;;
18048;SDS011;9149;47.002;8.604;2022-12-18T13:14:10;9.97;;;5.03;;
18048;SDS011;9149;47.002;8.604;2022-12-18T13:16:47;14.80;;;5.23;;
18048;SDS011;9149;47.002;8.604;2022-12-18T13:19:20;9.87;;;4.80;;
18048;SDS011;9149;47.002;8.604;2022-12-18T13:21:52;10.20;;;5.27;;
18048;SDS011;9149;47.002;8.604;2022-12-18T13:24:22;14.67;;;5.53;;
18048;SDS011;9149;47.002;8.604;2022-12-18T13:26:53;10.97;;;5.50;;
18048;SDS011;9149;47.002;8.604;2022-12-18T13:32:15;13.63;;;5.27;;
18048;SDS011;9149;47.002;8.604;2022-12-18T13:34:47;9.93;;;4.97;;
18048;SDS011;9149;47.002;8.604;2022-12-18T13:39:58;12.77;;;5.80;;
18048;SDS011;9149;47.002;8.604;2022-12-18T13:47:57;19.67;;;5.93;;
18048;SDS011;9149;47.002;8.604;2022-12-18T13:50:25;16.57;;;6.03;;
18048;SDS011;9149;47.002;8.604;2022-12-18T13:53:02;10.40;;;5.47;;
18048;SDS011;9149;47.002;8.604;2022-12-18T13:55:30;10.87;;;5.17;;
18048;SDS011;9149;47.002;8.604;2022-12-18T13:58:02;12.50;;;5.40;;
18048;SDS011;9149;47.002;8.604;2022-12-18T14:00:31;11.47;;;5.43;;
18048;SDS011;9149;47.002;8.604;2022-12-18T14:03:00;10.03;;;5.03;;
18048;SDS011;9149;47.002;8.604;2022-12-18T14:05:29;12.03;;;5.67;;
18048;SDS011;9149;47.002;8.604;2022-12-18T14:07:59;10.30;;;4.90;;
18048;SDS011;9149;47.002;8.604;2022-12-18T14:10:28;10.80;;;5.10;;
18048;SDS011;9149;47.002;8.604;2022-12-18T14:13:16;9.63;;;4.60;;
18048;SDS011;9149;47.002;8.604;2022-12-18T14:15:46;9.87;;;4.60;;
18048;SDS011;9149;47.002;8.604;2022-12-18T14:18:19;10.23;;;4.87;;
18048;SDS011;9149;47.002;8.604;2022-12-18T14:20:47;11.70;;;5.33;;
18048;SDS011;9149;47.002;8.604;2022-12-18T14:23:27;13.33;;;6.00;;
18048;SDS011;9149;47.002;8.604;2022-12-18T14:25:55;13.77;;;5.40;;
18048;SDS011;9149;47.002;8.604;2022-12-18T14:28:30;9.57;;;5.40;;
18048;SDS011;9149;47.002;8.604;2022-12-18T14:30:58;8.57;;;4.50;;
18048;SDS011;9149;47.002;8.604;2022-12-18T14:33:27;8.03;;;4.73;;
18048;SDS011;9149;47.002;8.604;2022-12-18T14:35:56;10.80;;;5.03;;
18048;SDS011;9149;47.002;8.604;2022-12-18T14:38:25;9.93;;;4.53;;
18048;SDS011;9149;47.002;8.604;2022-12-18T14:40:53;10.90;;;5.03;;
18048;SDS011;9149;47.002;8.604;2022-12-18T14:43:21;10.83;;;5.40;;
18048;SDS011;9149;47.002;8.604;2022-12-18T14:45:49;11.23;;;5.70;;
18048;SDS011;9149;47.002;8.604;2022-12-18T14:48:18;13.97;;;6.17;;
18048;SDS011;9149;47.002;8.604;2022-12-18T14:50:59;14.07;;;5.90;;
18048;SDS011;9149;47.002;8.604;2022-12-18T14:53:32;12.50;;;5.73;;
18048;SDS011;9149;47.002;8.604;2022-12-18T14:56:00;11.93;;;5.33;;
18048;SDS011;9149;47.002;8.604;2022-12-18T14:58:28;13.37;;;6.20;;
18048;SDS011;9149;47.002;8.604;2022-12-18T15:00:56;7.53;;;4.10;;
18048;SDS011;9149;47.002;8.604;2022-12-18T15:03:24;11.90;;;4.93;;
18048;SDS011;9149;47.002;8.604;2022-12-18T15:05:52;10.90;;;5.47;;
18048;SDS011;9149;47.002;8.604;2022-12-18T15:08:29;13.70;;;6.43;;
18048;SDS011;9149;47.002;8.604;2022-12-18T15:10:58;16.37;;;5.80;;
18048;SDS011;9149;47.002;8.604;2022-12-18T15:13:27;15.30;;;5.80;;
18048;SDS011;9149;47.002;8.604;2022-12-18T15:15:54;8.90;;;4.50;;
18048;SDS011;9149;47.002;8.604;2022-12-18T15:18:25;10.23;;;4.53;;
18048;SDS011;9149;47.002;8.604;2022-12-18T15:20:55;11.90;;;5.00;;
18048;SDS011;9149;47.002;8.604;2022-12-18T15:23:24;9.33;;;5.33;;
18048;SDS011;9149;47.002;8.604;2022-12-18T15:25:57;9.50;;;4.20;;
18048;SDS011;9149;47.002;8.604;2022-12-18T15:28:25;11.90;;;5.00;;
18048;SDS011;9149;47.002;8.604;2022-12-18T15:30:57;10.23;;;4.53;;
18048;SDS011;9149;47.002;8.604;2022-12-18T15:33:26;8.00;;;4.13;;